createdAt,value
2022-08-22T00:00:13.958Z,59.00
2022-08-22T00:03:01.812Z,53.00
2022-08-22T00:03:31.250Z,58.90
2022-08-22T00:06:31.061Z,59.80
2022-08-22T00:09:48.549Z,59.30
2022-08-22T00:12:26.221Z,59.40
2022-08-22T00:15:42.409Z,59.70
2022-08-22T00:18:55.665Z,59.30
2022-08-22T00:21:39.559Z,60.10
2022-08-22T00:24:29.756Z,60.10
2022-08-22T00:27:37.941Z,59.60
2022-08-22T00:30:18.100Z,59.50
2022-08-22T00:33:11.713Z,58.90
2022-08-22T00:35:51.624Z,59.00
2022-08-22T00:38:40.981Z,59.60
2022-08-22T00:41:50.556Z,58.90
2022-08-22T00:45:00.429Z,59.40
2022-08-22T00:48:02.919Z,59.70
2022-08-22T00:51:10.841Z,59.80
2022-08-22T00:54:28.668Z,59.80
2022-08-22T00:58:22.561Z,59.20
2022-08-22T01:01:03.358Z,58.50
2022-08-22T01:03:50.367Z,59.00
2022-08-22T01:07:23.840Z,59.20
2022-08-22T01:10:43.348Z,58.90
2022-08-22T01:14:37.571Z,59.80
2022-08-22T01:18:11.431Z,59.70
2022-08-22T01:21:59.961Z,60.10
2022-08-22T01:25:39.390Z,58.90
2022-08-22T01:29:01.485Z,58.10
2022-08-22T01:31:53.717Z,59.10
2022-08-22T01:35:09.539Z,59.10
2022-08-22T01:38:23.634Z,59.30
2022-08-22T01:41:39.866Z,59.00
2022-08-22T01:45:08.486Z,59.60
2022-08-22T01:48:20.318Z,60.00
2022-08-22T01:51:39.069Z,60.20
2022-08-22T01:54:54.822Z,60.50
2022-08-22T01:57:24.678Z,61.00
2022-08-22T02:00:07.842Z,61.30
2022-08-22T02:03:24.562Z,61.30
2022-08-22T02:06:15.512Z,61.80
2022-08-22T02:09:40.641Z,62.00
2022-08-22T02:12:42.308Z,62.70
2022-08-22T02:16:09.778Z,63.30
2022-08-22T02:19:15.473Z,63.30
2022-08-22T02:22:18.087Z,63.50
2022-08-22T02:25:21.535Z,63.70
2022-08-22T02:28:16.760Z,63.90
2022-08-22T02:31:20.379Z,64.30
2022-08-22T02:34:02.336Z,64.30
2022-08-22T02:36:46.721Z,64.40
2022-08-22T02:40:07.115Z,64.40
2022-08-22T02:43:25.434Z,64.30
2022-08-22T02:46:38.669Z,64.30
2022-08-22T02:50:12.936Z,64.30
2022-08-22T02:53:38.859Z,64.70
2022-08-22T02:56:34.341Z,65.10
2022-08-22T02:59:38.017Z,64.40
2022-08-22T03:02:56.788Z,64.10
2022-08-22T03:05:36.845Z,64.50
2022-08-22T03:08:17.083Z,64.60
2022-08-22T03:11:07.493Z,64.10
2022-08-22T03:14:26.048Z,64.20
2022-08-22T03:17:21.675Z,64.00
2022-08-22T03:20:52.056Z,64.00
2022-08-22T03:23:54.455Z,64.30
2022-08-22T03:26:52.355Z,64.80
2022-08-22T03:29:31.343Z,64.90
2022-08-22T03:32:24.284Z,65.60
2022-08-22T03:35:26.242Z,65.60
2022-08-22T03:38:24.784Z,65.60
2022-08-22T03:41:27.371Z,65.80
2022-08-22T03:44:29.092Z,66.60
2022-08-22T03:47:38.613Z,67.00
2022-08-22T03:50:26.680Z,66.80
2022-08-22T03:53:41.315Z,66.90
2022-08-22T03:56:52.603Z,67.10
2022-08-22T04:00:24.021Z,67.30
2022-08-22T04:04:02.355Z,67.60
2022-08-22T04:07:45.746Z,67.50
2022-08-22T04:10:51.688Z,67.50
2022-08-22T04:13:49.972Z,67.60
2022-08-22T04:16:58.194Z,67.90
2022-08-22T04:20:37.765Z,67.60
2022-08-22T04:23:49.668Z,68.50
2022-08-22T04:27:10.964Z,67.80
2022-08-22T04:30:16.040Z,67.30
2022-08-22T04:33:04.991Z,67.80
2022-08-22T04:36:14.918Z,67.50
2022-08-22T04:39:13.131Z,66.90
2022-08-22T04:42:11.143Z,66.80
2022-08-22T04:45:17.221Z,66.50
2022-08-22T04:48:22.841Z,66.10
2022-08-22T04:51:24.850Z,65.80
2022-08-22T04:54:23.500Z,66.30
2022-08-22T04:57:34.465Z,67.00
2022-08-22T05:00:09.707Z,66.80
2022-08-22T05:02:44.669Z,67.30
2022-08-22T05:05:42.369Z,67.70
2022-08-22T05:08:18.844Z,67.30
2022-08-22T05:10:49.999Z,66.50
2022-08-22T05:13:27.174Z,67.10
2022-08-22T05:16:04.379Z,66.80
2022-08-22T05:18:50.175Z,66.80
2022-08-22T05:21:27.166Z,66.90
2022-08-22T05:24:19.361Z,68.00
2022-08-22T05:26:53.933Z,67.40
2022-08-22T05:29:30.667Z,67.30
2022-08-22T05:32:16.488Z,68.00
2022-08-22T05:34:46.643Z,67.50
2022-08-22T05:37:23.308Z,67.10
2022-08-22T05:39:59.800Z,66.90
2022-08-22T05:42:37.261Z,67.40
2022-08-22T05:45:12.398Z,66.90
2022-08-22T05:48:17.093Z,66.80
2022-08-22T05:51:05.899Z,67.20
2022-08-22T05:53:44.400Z,67.60
2022-08-22T05:56:48.884Z,67.70
2022-08-22T05:59:39.597Z,67.80
2022-08-22T06:02:47.601Z,68.20
2022-08-22T06:05:32.813Z,68.00
2022-08-22T06:08:44.285Z,68.10
2022-08-22T06:11:33.947Z,68.50
2022-08-22T06:14:48.905Z,68.30
2022-08-22T06:17:33.717Z,68.50
2022-08-22T06:20:02.253Z,68.50
2022-08-22T06:22:41.435Z,68.60
2022-08-22T06:25:31.973Z,68.80
2022-08-22T06:28:13.667Z,68.50
2022-08-22T06:30:45.476Z,68.20
2022-08-22T06:33:22.533Z,68.40
2022-08-22T06:36:31.672Z,67.50
2022-08-22T06:39:36.591Z,68.20
2022-08-22T06:42:17.221Z,67.50
2022-08-22T06:45:00.312Z,67.10
2022-08-22T06:48:00.573Z,66.90
2022-08-22T06:50:43.753Z,66.30
2022-08-22T06:53:38.331Z,66.30
2022-08-22T06:56:19.165Z,67.00
2022-08-22T06:58:52.461Z,66.70
2022-08-22T07:01:33.152Z,66.40
2022-08-22T07:04:10.491Z,66.20
2022-08-22T07:06:50.310Z,66.20
2022-08-22T07:09:38.812Z,66.20
2022-08-22T07:12:36.048Z,65.10
2022-08-22T07:15:39.816Z,65.50
2022-08-22T07:18:23.281Z,65.60
2022-08-22T07:20:57.496Z,65.80
2022-08-22T07:23:47.900Z,65.30
2022-08-22T07:26:55.968Z,64.80
2022-08-22T07:30:15.291Z,65.00
2022-08-22T07:33:26.087Z,65.10
2022-08-22T07:36:31.844Z,64.30
2022-08-22T07:39:53.945Z,64.70
2022-08-22T07:43:04.421Z,64.00
2022-08-22T07:46:00.310Z,63.10
2022-08-22T07:49:21.783Z,63.10
2022-08-22T07:52:08.043Z,62.20
2022-08-22T07:55:23.735Z,62.20
2022-08-22T07:58:04.524Z,62.10
2022-08-22T08:00:33.760Z,62.40
2022-08-22T08:03:08.955Z,61.30
2022-08-22T08:05:40.876Z,60.90
2022-08-22T08:08:25.297Z,60.80
2022-08-22T08:10:59.251Z,61.40
2022-08-22T08:13:40.020Z,60.50
2022-08-22T08:16:22.311Z,59.30
2022-08-22T08:18:56.723Z,58.40
2022-08-22T08:21:43.871Z,58.70
2022-08-22T08:24:21.204Z,57.30
2022-08-22T08:27:19.040Z,57.60
2022-08-22T08:30:02.706Z,57.60
2022-08-22T08:32:36.300Z,58.50
2022-08-22T08:35:30.144Z,56.70
2022-08-22T08:38:31.299Z,57.70
2022-08-22T08:41:51.586Z,57.10
2022-08-22T08:45:24.654Z,56.00
2022-08-22T08:48:57.042Z,56.70
2022-08-22T08:51:58.006Z,57.30
2022-08-22T08:54:51.727Z,57.10
2022-08-22T08:58:29.130Z,56.30
2022-08-22T09:01:37.600Z,56.10
2022-08-22T09:05:12.615Z,56.30
2022-08-22T09:08:47.514Z,56.80
2022-08-22T09:12:31.050Z,56.20
2022-08-22T09:15:58.446Z,55.80
2022-08-22T09:19:18.976Z,57.40
2022-08-22T09:22:56.310Z,54.40
2022-08-22T09:26:21.996Z,55.00
2022-08-22T09:29:51.467Z,53.80
2022-08-22T09:33:13.522Z,54.80
2022-08-22T09:36:12.896Z,53.40
2022-08-22T09:39:47.205Z,53.20
2022-08-22T09:43:11.059Z,52.70
2022-08-22T09:46:22.521Z,53.10
2022-08-22T09:49:24.061Z,55.60
2022-08-22T09:52:15.293Z,54.40
2022-08-22T09:55:11.817Z,53.60
2022-08-22T09:58:05.714Z,54.40
2022-08-22T10:01:03.901Z,55.90
2022-08-22T10:04:07.075Z,55.00
2022-08-22T10:07:34.131Z,55.70
2022-08-22T10:10:47.161Z,55.50
2022-08-22T10:13:47.412Z,54.70
2022-08-22T10:17:24.825Z,54.00
2022-08-22T10:20:23.152Z,53.80
2022-08-22T10:23:35.037Z,53.70
2022-08-22T10:26:38.604Z,52.50
2022-08-22T10:30:06.784Z,51.30
2022-08-22T10:33:44.473Z,52.90
2022-08-22T10:36:40.924Z,52.00
2022-08-22T10:39:22.266Z,52.30
2022-08-22T10:42:28.278Z,50.70
2022-08-22T10:45:36.882Z,52.30
2022-08-22T10:48:23.400Z,51.80
2022-08-22T10:51:28.833Z,51.60
2022-08-22T10:54:33.049Z,48.10
2022-08-22T10:57:42.691Z,48.20
2022-08-22T11:01:01.855Z,50.90
2022-08-22T11:04:28.314Z,50.90
2022-08-22T11:07:18.633Z,50.70
2022-08-22T11:10:05.308Z,50.70
2022-08-22T11:12:43.616Z,50.80
2022-08-22T11:16:30.738Z,47.90
2022-08-22T11:20:07.740Z,46.60
2022-08-22T11:23:04.617Z,47.90
2022-08-22T11:26:14.132Z,48.60
2022-08-22T11:29:29.404Z,45.80
2022-08-22T11:32:32.158Z,47.80
2022-08-22T11:35:27.928Z,48.20
2022-08-22T11:38:10.910Z,47.70
2022-08-22T11:41:29.766Z,44.20
2022-08-22T11:44:19.281Z,47.10
2022-08-22T11:46:51.230Z,45.70
2022-08-22T11:49:51.395Z,47.40
2022-08-22T11:52:51.804Z,46.80
2022-08-22T11:56:29.443Z,44.40
2022-08-22T11:59:18.504Z,46.00
2022-08-22T12:02:04.732Z,46.00
2022-08-22T12:04:52.048Z,43.20
2022-08-22T12:07:37.043Z,45.30
2022-08-22T12:10:27.552Z,44.40
2022-08-22T12:13:51.247Z,44.70
2022-08-22T12:17:55.932Z,44.90
2022-08-22T12:21:26.082Z,44.50
2022-08-22T12:24:48.013Z,45.10
2022-08-22T12:28:09.756Z,44.30
2022-08-22T12:31:12.845Z,40.50
2022-08-22T12:34:07.778Z,41.10
2022-08-22T12:37:18.416Z,42.30
2022-08-22T12:40:57.201Z,42.60
2022-08-22T12:44:17.206Z,42.80
2022-08-22T12:47:59.088Z,42.10
2022-08-22T12:51:25.280Z,40.90
2022-08-22T12:55:03.080Z,41.00
2022-08-22T12:58:06.949Z,42.20
2022-08-22T13:00:47.424Z,39.80
2022-08-22T13:03:33.914Z,41.20
2022-08-22T13:06:33.469Z,40.70
2022-08-22T13:09:19.812Z,38.80
2022-08-22T13:12:24.625Z,40.30
2022-08-22T13:15:19.360Z,39.60
2022-08-22T13:17:50.795Z,40.60
2022-08-22T13:20:41.649Z,41.30
2022-08-22T13:23:42.120Z,41.60
2022-08-22T13:26:34.568Z,41.50
2022-08-22T13:29:27.186Z,40.30
2022-08-22T13:32:01.843Z,41.30
2022-08-22T13:35:09.354Z,39.50
2022-08-22T13:37:45.940Z,39.60
2022-08-22T13:40:31.639Z,40.00
2022-08-22T13:43:30.250Z,39.70
2022-08-22T13:46:07.201Z,40.40
2022-08-22T13:49:00.747Z,40.10
2022-08-22T13:52:30.464Z,40.10
2022-08-22T13:55:34.515Z,40.60
2022-08-22T13:58:18.359Z,40.80
2022-08-22T14:01:39.228Z,40.20
2022-08-22T14:04:34.883Z,39.10
2022-08-22T14:07:03.762Z,40.00
2022-08-22T14:10:14.846Z,39.60
2022-08-22T14:13:50.171Z,39.60
2022-08-22T14:16:37.819Z,40.60
2022-08-22T14:19:39.968Z,41.40
2022-08-22T14:22:31.716Z,41.10
2022-08-22T14:25:21.411Z,39.60
2022-08-22T14:27:59.127Z,41.00
2022-08-22T14:31:13.410Z,39.40
2022-08-22T14:34:10.364Z,38.30
2022-08-22T14:37:15.644Z,38.70
2022-08-22T14:40:03.042Z,39.40
2022-08-22T14:43:33.615Z,38.60
2022-08-22T14:46:16.353Z,39.10
2022-08-22T14:49:28.850Z,38.80
2022-08-22T14:52:10.572Z,39.00
2022-08-22T14:54:47.041Z,39.80
2022-08-22T14:57:19.951Z,37.60
2022-08-22T14:59:52.304Z,34.80
2022-08-22T15:02:32.805Z,35.90
2022-08-22T15:05:21.414Z,34.60
2022-08-22T15:07:59.459Z,35.30
2022-08-22T15:10:34.191Z,35.60
2022-08-22T15:13:10.625Z,34.00
2022-08-22T15:15:53.321Z,34.30
2022-08-22T15:18:29.447Z,35.20
2022-08-22T15:21:10.233Z,35.50
2022-08-22T15:23:46.598Z,32.90
2022-08-22T15:26:40.134Z,32.70
2022-08-22T15:29:52.011Z,32.20
2022-08-22T15:32:29.832Z,31.80
2022-08-22T15:35:29.989Z,32.70
2022-08-22T15:38:32.740Z,32.20
2022-08-22T15:41:22.798Z,31.80
2022-08-22T15:44:32.393Z,31.50
2022-08-22T15:47:34.915Z,32.90
2022-08-22T15:50:15.897Z,32.30
2022-08-22T15:53:43.681Z,31.40
2022-08-22T15:56:16.680Z,32.30
2022-08-22T15:59:11.708Z,31.30
2022-08-22T16:01:52.556Z,31.60
2022-08-22T16:04:47.376Z,30.10
2022-08-22T16:07:41.142Z,31.50
2022-08-22T16:10:50.378Z,31.70
2022-08-22T16:13:43.213Z,31.30
2022-08-22T16:16:45.404Z,30.90
2022-08-22T16:19:29.855Z,31.00
2022-08-22T16:21:59.317Z,31.00
2022-08-22T16:24:59.580Z,31.80
2022-08-22T16:27:28.593Z,32.00
2022-08-22T16:30:10.839Z,32.40
2022-08-22T16:32:40.181Z,31.80
2022-08-22T16:35:07.684Z,32.00
2022-08-22T16:37:49.916Z,32.70
2022-08-22T16:40:25.777Z,33.20
2022-08-22T16:43:18.602Z,31.30
2022-08-22T16:45:48.552Z,32.20
2022-08-22T16:48:37.095Z,31.70
2022-08-22T16:51:18.721Z,32.20
2022-08-22T16:54:32.627Z,33.00
2022-08-22T16:58:16.084Z,33.10
2022-08-22T17:01:15.415Z,33.10
2022-08-22T17:04:09.467Z,31.60
2022-08-22T17:07:19.863Z,32.50
2022-08-22T17:10:12.193Z,32.20
2022-08-22T17:13:51.554Z,32.10
2022-08-22T17:16:40.429Z,33.50
2022-08-22T17:19:56.088Z,32.20
2022-08-22T17:22:45.038Z,34.00
2022-08-22T17:25:58.560Z,33.50
2022-08-22T17:29:04.341Z,33.30
2022-08-22T17:32:20.903Z,33.60
2022-08-22T17:35:43.363Z,33.70
2022-08-22T17:38:57.245Z,34.40
2022-08-22T17:41:41.521Z,33.90
2022-08-22T17:44:53.435Z,34.30
2022-08-22T17:47:38.994Z,35.10
2022-08-22T17:50:49.417Z,35.10
2022-08-22T17:54:01.320Z,35.30
2022-08-22T17:57:13.366Z,35.70
2022-08-22T18:00:30.684Z,35.30
2022-08-22T18:03:22.528Z,35.70
2022-08-22T18:06:26.519Z,36.90
2022-08-22T18:09:19.070Z,37.50
2022-08-22T18:12:15.704Z,38.10
2022-08-22T18:15:11.508Z,38.70
2022-08-22T18:17:55.442Z,38.90
2022-08-22T18:20:51.785Z,39.50
2022-08-22T18:23:39.787Z,40.10
2022-08-22T18:26:45.241Z,39.70
2022-08-22T18:29:31.532Z,40.30
2022-08-22T18:32:28.385Z,40.00
2022-08-22T18:35:23.762Z,40.20
2022-08-22T18:38:20.197Z,40.50
2022-08-22T18:41:32.729Z,41.10
2022-08-22T18:44:01.521Z,41.50
2022-08-22T18:46:52.879Z,42.60
2022-08-22T18:49:19.952Z,41.90
2022-08-22T18:52:09.160Z,41.40
2022-08-22T18:55:17.936Z,41.20
2022-08-22T18:58:34.381Z,41.40
2022-08-22T19:02:03.204Z,41.80
2022-08-22T19:05:46.922Z,42.20
2022-08-22T19:09:32.180Z,44.00
2022-08-22T19:13:18.964Z,43.40
2022-08-22T19:16:20.968Z,44.20
2022-08-22T19:19:04.072Z,43.20
2022-08-22T19:21:56.668Z,43.30
2022-08-22T19:24:26.800Z,43.50
2022-08-22T19:27:10.674Z,43.40
2022-08-22T19:29:37.864Z,43.90
2022-08-22T19:32:29.005Z,43.80
2022-08-22T19:36:05.817Z,43.80
2022-08-22T19:39:41.807Z,44.10
2022-08-22T19:42:21.275Z,44.30
2022-08-22T19:45:28.737Z,44.40
2022-08-22T19:48:13.613Z,45.40
2022-08-22T19:50:43.122Z,45.30
2022-08-22T19:53:47.763Z,45.70
2022-08-22T19:57:09.923Z,45.60
2022-08-22T20:00:06.113Z,45.70
2022-08-22T20:03:07.416Z,46.70
2022-08-22T20:06:05.979Z,45.70
2022-08-22T20:09:33.946Z,45.80
2022-08-22T20:12:28.916Z,45.60
2022-08-22T20:14:56.896Z,45.90
2022-08-22T20:17:26.976Z,45.90
2022-08-22T20:20:18.424Z,46.30
2022-08-22T20:23:25.161Z,46.60
2022-08-22T20:25:55.945Z,46.70
2022-08-22T20:28:47.165Z,46.80
2022-08-22T20:31:28.199Z,46.90
2022-08-22T20:34:18.246Z,47.50
2022-08-22T20:36:55.870Z,47.40
2022-08-22T20:40:55.605Z,47.30
2022-08-22T20:44:15.902Z,47.20
2022-08-22T20:47:19.606Z,47.60
2022-08-22T20:50:00.607Z,48.00
2022-08-22T20:52:51.924Z,47.90
2022-08-22T20:55:31.654Z,47.90
2022-08-22T20:58:20.659Z,48.10
2022-08-22T21:00:53.878Z,48.40
2022-08-22T21:03:51.665Z,48.50
2022-08-22T21:06:34.999Z,49.00
2022-08-22T21:09:39.944Z,48.90
2022-08-22T21:12:09.432Z,49.20
2022-08-22T21:14:45.927Z,49.20
2022-08-22T21:17:35.472Z,49.10
2022-08-22T21:20:22.762Z,49.10
2022-08-22T21:22:51.130Z,49.40
2022-08-22T21:25:18.567Z,49.80
2022-08-22T21:27:48.698Z,49.80
2022-08-22T21:30:28.178Z,49.60
2022-08-22T21:32:56.561Z,49.90
2022-08-22T21:35:32.443Z,49.90
2022-08-22T21:38:01.650Z,49.90
2022-08-22T21:40:38.601Z,50.20
2022-08-22T21:43:34.233Z,50.40
2022-08-22T21:46:01.632Z,50.40
2022-08-22T21:48:59.827Z,50.40
2022-08-22T21:51:45.806Z,50.70
2022-08-22T21:54:25.186Z,50.70
2022-08-22T21:57:09.481Z,51.30
2022-08-22T22:00:48.933Z,51.10
2022-08-22T22:03:28.160Z,51.50
2022-08-22T22:06:05.564Z,51.20
2022-08-22T22:08:33.885Z,51.60
2022-08-22T22:11:14.482Z,51.50
2022-08-22T22:13:43.373Z,51.40
2022-08-22T22:16:12.592Z,52.30
2022-08-22T22:18:40.823Z,51.70
2022-08-22T22:21:09.417Z,51.70
2022-08-22T22:23:36.803Z,51.70
2022-08-22T22:26:06.640Z,52.30
2022-08-22T22:28:47.227Z,52.40
2022-08-22T22:31:18.365Z,53.00
2022-08-22T22:33:46.227Z,52.00
2022-08-22T22:36:23.705Z,52.70
2022-08-22T22:38:52.185Z,52.40
2022-08-22T22:41:25.343Z,52.30
2022-08-22T22:43:57.269Z,52.40
2022-08-22T22:46:27.214Z,52.70
2022-08-22T22:48:57.091Z,52.90
2022-08-22T22:51:26.324Z,52.90
2022-08-22T22:53:55.307Z,52.80
2022-08-22T22:56:24.588Z,52.60
2022-08-22T22:58:59.316Z,52.80
2022-08-22T23:02:16.443Z,52.70
2022-08-22T23:04:50.764Z,53.30
2022-08-22T23:07:18.838Z,53.30
2022-08-22T23:09:46.654Z,53.80
2022-08-22T23:12:24.492Z,53.90
2022-08-22T23:14:52.307Z,54.10
2022-08-22T23:17:20.047Z,54.20
2022-08-22T23:19:47.747Z,54.30
2022-08-22T23:22:15.249Z,54.10
2022-08-22T23:24:42.834Z,54.70
2022-08-22T23:27:12.932Z,54.10
2022-08-22T23:29:41.701Z,54.50
2022-08-22T23:32:12.441Z,55.80
2022-08-22T23:34:48.728Z,55.50
2022-08-22T23:37:21.803Z,56.30
2022-08-22T23:39:50.196Z,57.00
2022-08-22T23:42:18.780Z,57.00
2022-08-22T23:44:47.676Z,57.10
2022-08-22T23:47:15.711Z,57.90
2022-08-22T23:49:43.899Z,57.80
2022-08-22T23:52:14.206Z,58.40
2022-08-22T23:54:42.370Z,58.50
2022-08-22T23:57:12.096Z,58.60
2022-08-22T23:59:47.938Z,58.80
